Detall de PIREP

Printer-friendly versionPDF version

[2015/06/06 14:54:00]
Flight IATA:CT1063
Pilot Number:012
Company ICAO:CAT
Aircraft Type:DC85/A
PAX:90
Aircraft Registration:PAX
Departing Airport: LTBA
Destination Airport: LGAV
Alternate Airport:LGTS
Online: VATSIM
Route:BIG UN604 KEPIR
Flight Level:F300
No Slew and time accel
No pause
Crash detect
Detect pilot in Cockpit between each 30 and 45 minutes
14:54 Zero fuel Weight: 160288 Lbs, Fuel Weight: 59420 Lbs
14:54 VATSIM:LTBA 061420Z 01016KT 330V050 9999 SCT020 23/17 Q1018 NOSIG
14:54 VATSIM:LGAV 061420Z 03023KT 9999 FEW020 BKN035 25/12 Q1017 NOSIG
14:54 ALMOGAVERS ROUTE
15:00 Parking Brakes off
15:06 Take-off
15:06 Take off Weight: 218515 Lbs
15:06 Wind: 004º @ 016 Knots Heading: 358º
15:06 POS N40º 58´ 57´´ E028º 48´ 23´´
15:06 Gear Up: 159 Knots
15:06 Flaps:2 at 159 Knots
15:07 Flaps:1 at 193 Knots
15:07 Flaps:0 at 224 Knots
15:17 TOC
15:17 Fuel Weight: 54187 Lb
15:21 Wind:043º@011 Knots Heading: 204º Ground Speed: 506 Knots Altitude 30095 ft
15:36 Wind:065º@010 Knots Heading: 237º Ground Speed: 497 Knots Altitude 30036 ft
15:39 TOD
15:39 Fuel Weight: 48696 Lb
15:51 Wind:060º@016 Knots Heading: 192º Ground Speed: 286 Knots Altitude 7670 ft
15:56 Flaps:1 at 222 Knots
16:01 Flaps:2 at 231 Knots
16:03 Flaps:3 at 203 Knots
16:03 Gear Down: 203 Knots
16:03 Flaps:4 at 203 Knots
16:04 Flaps:5 at 169 Knots
16:04 Flaps:4 at 168 Knots
16:06 Wind:006º@017 Knots Heading: 034º Ground Speed: 129 Knots Altitude 374 ft
16:06 TouchDown:Rate -386 ft/min Speed: 135 Knots
16:06 VATSIM:LGAV 061550Z 01016G28KT 9999 FEW020 SCT035 25/12 Q1017 NOSIG
16:06 Land
16:06 Wind:006º@017 Knots
16:06 Heading: 033º
16:06 Flight Duration: 01:00
16:06 Landing Weight: 205993 Lbs
16:06 POS N37º 56´ 03´´ E023º 55´ 51´´
16:10 Parking brakeson
16:10 Block to Block Duration: 01:10
16:10 Final Fuel: 45319 Lbls
16:10 Spent Fuel: 14100 Lbls
16:10 Flight Length: 381 NM
16:10 TOD Land Length: 136 NM

Exportar CSV

Powered by Drupal - Modified by Danger4k